sensor_id;sensor_type;location;lat;lon;timestamp;P1;durP1;ratioP1;P2;durP2;ratioP2
2313;SDS011;42279;51.388;7.000;2023-05-07T00:01:49;4.10;;;3.90;;
2313;SDS011;42279;51.388;7.000;2023-05-07T00:04:15;3.70;;;3.60;;
2313;SDS011;42279;51.388;7.000;2023-05-07T00:06:41;5.63;;;5.27;;
2313;SDS011;42279;51.388;7.000;2023-05-07T00:09:07;4.93;;;4.70;;
2313;SDS011;42279;51.388;7.000;2023-05-07T00:11:33;5.03;;;4.80;;
2313;SDS011;42279;51.388;7.000;2023-05-07T00:13:59;3.83;;;3.33;;
2313;SDS011;42279;51.388;7.000;2023-05-07T00:16:26;4.20;;;4.00;;
2313;SDS011;42279;51.388;7.000;2023-05-07T00:18:52;4.23;;;3.97;;
2313;SDS011;42279;51.388;7.000;2023-05-07T00:21:18;3.70;;;3.27;;
2313;SDS011;42279;51.388;7.000;2023-05-07T00:23:44;3.93;;;3.83;;
2313;SDS011;42279;51.388;7.000;2023-05-07T00:26:10;4.80;;;4.60;;
2313;SDS011;42279;51.388;7.000;2023-05-07T00:28:36;4.80;;;4.60;;
2313;SDS011;42279;51.388;7.000;2023-05-07T00:31:02;5.20;;;4.93;;
2313;SDS011;42279;51.388;7.000;2023-05-07T00:33:28;4.50;;;4.27;;
2313;SDS011;42279;51.388;7.000;2023-05-07T00:35:54;5.57;;;5.28;;
2313;SDS011;42279;51.388;7.000;2023-05-07T00:38:20;5.40;;;5.15;;
2313;SDS011;42279;51.388;7.000;2023-05-07T00:40:46;5.65;;;5.35;;
2313;SDS011;42279;51.388;7.000;2023-05-07T00:43:12;5.10;;;4.90;;
2313;SDS011;42279;51.388;7.000;2023-05-07T00:45:39;5.33;;;4.80;;
2313;SDS011;42279;51.388;7.000;2023-05-07T00:48:05;3.87;;;3.77;;
2313;SDS011;42279;51.388;7.000;2023-05-07T00:50:31;7.60;;;5.43;;
2313;SDS011;42279;51.388;7.000;2023-05-07T00:52:58;6.10;;;5.80;;
2313;SDS011;42279;51.388;7.000;2023-05-07T00:55:25;5.70;;;5.17;;
2313;SDS011;42279;51.388;7.000;2023-05-07T00:57:51;6.23;;;5.63;;
2313;SDS011;42279;51.388;7.000;2023-05-07T01:00:17;6.20;;;5.73;;
2313;SDS011;42279;51.388;7.000;2023-05-07T01:02:44;6.17;;;5.97;;
2313;SDS011;42279;51.388;7.000;2023-05-07T01:05:12;5.57;;;5.37;;
2313;SDS011;42279;51.388;7.000;2023-05-07T01:07:39;5.83;;;5.63;;
2313;SDS011;42279;51.388;7.000;2023-05-07T01:10:06;5.17;;;4.73;;
2313;SDS011;42279;51.388;7.000;2023-05-07T01:12:32;5.83;;;5.53;;
2313;SDS011;42279;51.388;7.000;2023-05-07T01:14:59;5.53;;;5.03;;
2313;SDS011;42279;51.388;7.000;2023-05-07T01:17:26;5.00;;;4.80;;
2313;SDS011;42279;51.388;7.000;2023-05-07T01:19:52;5.30;;;5.10;;
2313;SDS011;42279;51.388;7.000;2023-05-07T01:22:26;6.00;;;5.60;;
2313;SDS011;42279;51.388;7.000;2023-05-07T01:24:54;6.57;;;6.20;;
2313;SDS011;42279;51.388;7.000;2023-05-07T01:27:21;5.30;;;5.00;;
2313;SDS011;42279;51.388;7.000;2023-05-07T01:29:47;5.50;;;5.30;;
2313;SDS011;42279;51.388;7.000;2023-05-07T01:32:13;5.23;;;5.13;;
2313;SDS011;42279;51.388;7.000;2023-05-07T01:34:39;5.13;;;5.03;;
2313;SDS011;42279;51.388;7.000;2023-05-07T01:37:05;6.23;;;5.80;;
2313;SDS011;42279;51.388;7.000;2023-05-07T01:39:31;4.93;;;4.63;;
2313;SDS011;42279;51.388;7.000;2023-05-07T01:41:58;4.93;;;4.83;;
2313;SDS011;42279;51.388;7.000;2023-05-07T01:44:24;4.67;;;4.50;;
2313;SDS011;42279;51.388;7.000;2023-05-07T01:46:51;5.20;;;4.90;;
2313;SDS011;42279;51.388;7.000;2023-05-07T01:49:17;5.57;;;5.27;;
2313;SDS011;42279;51.388;7.000;2023-05-07T01:51:44;4.47;;;4.20;;
2313;SDS011;42279;51.388;7.000;2023-05-07T01:54:10;5.00;;;4.80;;
2313;SDS011;42279;51.388;7.000;2023-05-07T01:56:36;5.03;;;3.90;;
2313;SDS011;42279;51.388;7.000;2023-05-07T01:59:02;4.53;;;4.33;;
2313;SDS011;42279;51.388;7.000;2023-05-07T02:01:28;4.67;;;4.20;;
2313;SDS011;42279;51.388;7.000;2023-05-07T02:03:54;3.93;;;3.73;;
2313;SDS011;42279;51.388;7.000;2023-05-07T02:06:20;4.53;;;4.40;;
2313;SDS011;42279;51.388;7.000;2023-05-07T02:08:46;3.80;;;3.70;;
2313;SDS011;42279;51.388;7.000;2023-05-07T02:11:13;5.67;;;5.47;;
2313;SDS011;42279;51.388;7.000;2023-05-07T02:13:39;5.00;;;4.60;;
2313;SDS011;42279;51.388;7.000;2023-05-07T02:16:08;5.20;;;4.90;;
2313;SDS011;42279;51.388;7.000;2023-05-07T02:18:34;5.40;;;4.90;;
2313;SDS011;42279;51.388;7.000;2023-05-07T02:21:00;4.23;;;4.13;;
2313;SDS011;42279;51.388;7.000;2023-05-07T02:23:26;6.20;;;5.20;;
2313;SDS011;42279;51.388;7.000;2023-05-07T02:25:53;6.10;;;5.70;;
2313;SDS011;42279;51.388;7.000;2023-05-07T02:28:19;5.20;;;5.10;;
2313;SDS011;42279;51.388;7.000;2023-05-07T02:30:45;5.82;;;5.63;;
2313;SDS011;42279;51.388;7.000;2023-05-07T02:33:11;6.35;;;5.95;;
2313;SDS011;42279;51.388;7.000;2023-05-07T02:35:38;5.75;;;5.47;;
2313;SDS011;42279;51.388;7.000;2023-05-07T02:38:05;6.22;;;5.82;;
2313;SDS011;42279;51.388;7.000;2023-05-07T02:40:31;6.40;;;6.00;;
2313;SDS011;42279;51.388;7.000;2023-05-07T02:42:58;7.85;;;7.35;;
2313;SDS011;42279;51.388;7.000;2023-05-07T02:45:24;6.20;;;5.80;;
2313;SDS011;42279;51.388;7.000;2023-05-07T02:47:50;6.55;;;6.15;;
2313;SDS011;42279;51.388;7.000;2023-05-07T02:50:16;6.10;;;5.80;;
2313;SDS011;42279;51.388;7.000;2023-05-07T02:52:43;7.20;;;6.70;;
2313;SDS011;42279;51.388;7.000;2023-05-07T02:55:09;7.00;;;6.63;;
2313;SDS011;42279;51.388;7.000;2023-05-07T02:57:35;6.45;;;6.15;;
2313;SDS011;42279;51.388;7.000;2023-05-07T03:00:09;6.90;;;6.40;;
2313;SDS011;42279;51.388;7.000;2023-05-07T03:02:36;6.57;;;6.28;;
2313;SDS011;42279;51.388;7.000;2023-05-07T03:05:02;6.82;;;6.53;;
2313;SDS011;42279;51.388;7.000;2023-05-07T03:07:28;6.90;;;6.50;;
2313;SDS011;42279;51.388;7.000;2023-05-07T03:09:54;7.72;;;7.32;;
2313;SDS011;42279;51.388;7.000;2023-05-07T03:12:20;8.00;;;7.53;;
2313;SDS011;42279;51.388;7.000;2023-05-07T03:14:46;6.97;;;6.57;;
2313;SDS011;42279;51.388;7.000;2023-05-07T03:17:12;5.93;;;5.37;;
2313;SDS011;42279;51.388;7.000;2023-05-07T03:19:38;6.37;;;5.93;;
2313;SDS011;42279;51.388;7.000;2023-05-07T03:22:04;6.23;;;5.93;;
2313;SDS011;42279;51.388;7.000;2023-05-07T03:24:30;5.30;;;5.10;;
2313;SDS011;42279;51.388;7.000;2023-05-07T03:27:04;5.63;;;5.43;;
2313;SDS011;42279;51.388;7.000;2023-05-07T03:29:30;5.80;;;5.50;;
2313;SDS011;42279;51.388;7.000;2023-05-07T03:31:56;6.97;;;6.67;;
2313;SDS011;42279;51.388;7.000;2023-05-07T03:34:22;7.18;;;6.68;;
2313;SDS011;42279;51.388;7.000;2023-05-07T03:36:48;6.40;;;6.10;;
2313;SDS011;42279;51.388;7.000;2023-05-07T03:39:14;6.07;;;5.77;;
2313;SDS011;42279;51.388;7.000;2023-05-07T03:41:40;6.50;;;6.10;;
2313;SDS011;42279;51.388;7.000;2023-05-07T03:44:07;6.23;;;5.40;;
2313;SDS011;42279;51.388;7.000;2023-05-07T03:46:33;6.40;;;6.10;;
2313;SDS011;42279;51.388;7.000;2023-05-07T03:48:59;6.90;;;6.40;;
2313;SDS011;42279;51.388;7.000;2023-05-07T03:51:25;6.67;;;6.37;;
2313;SDS011;42279;51.388;7.000;2023-05-07T03:53:52;7.00;;;6.60;;
2313;SDS011;42279;51.388;7.000;2023-05-07T03:56:18;6.03;;;5.73;;
2313;SDS011;42279;51.388;7.000;2023-05-07T03:58:44;6.97;;;6.47;;
2313;SDS011;42279;51.388;7.000;2023-05-07T04:01:10;6.63;;;5.80;;
2313;SDS011;42279;51.388;7.000;2023-05-07T04:03:37;6.47;;;6.07;;
2313;SDS011;42279;51.388;7.000;2023-05-07T04:06:03;6.57;;;6.27;;
2313;SDS011;42279;51.388;7.000;2023-05-07T04:08:29;6.63;;;6.20;;
2313;SDS011;42279;51.388;7.000;2023-05-07T04:10:55;6.87;;;6.47;;
2313;SDS011;42279;51.388;7.000;2023-05-07T04:13:22;7.63;;;6.97;;
2313;SDS011;42279;51.388;7.000;2023-05-07T04:15:48;8.17;;;7.23;;
2313;SDS011;42279;51.388;7.000;2023-05-07T04:18:14;8.60;;;6.90;;
2313;SDS011;42279;51.388;7.000;2023-05-07T04:20:40;7.77;;;7.33;;
2313;SDS011;42279;51.388;7.000;2023-05-07T04:23:06;7.27;;;6.97;;
2313;SDS011;42279;51.388;7.000;2023-05-07T04:25:33;6.87;;;6.40;;
2313;SDS011;42279;51.388;7.000;2023-05-07T04:27:59;7.63;;;7.03;;
2313;SDS011;42279;51.388;7.000;2023-05-07T04:30:25;6.50;;;6.20;;
2313;SDS011;42279;51.388;7.000;2023-05-07T04:32:51;7.60;;;7.10;;
2313;SDS011;42279;51.388;7.000;2023-05-07T04:35:21;7.50;;;7.10;;
2313;SDS011;42279;51.388;7.000;2023-05-07T04:37:47;7.50;;;7.10;;
2313;SDS011;42279;51.388;7.000;2023-05-07T04:40:13;6.57;;;6.27;;
2313;SDS011;42279;51.388;7.000;2023-05-07T04:42:39;7.83;;;7.27;;
2313;SDS011;42279;51.388;7.000;2023-05-07T04:45:05;8.07;;;7.43;;
2313;SDS011;42279;51.388;7.000;2023-05-07T04:47:31;6.40;;;6.00;;
2313;SDS011;42279;51.388;7.000;2023-05-07T04:49:57;8.07;;;7.67;;
2313;SDS011;42279;51.388;7.000;2023-05-07T04:52:24;7.70;;;7.30;;
2313;SDS011;42279;51.388;7.000;2023-05-07T04:54:50;8.60;;;8.00;;
2313;SDS011;42279;51.388;7.000;2023-05-07T04:57:16;7.57;;;7.07;;
2313;SDS011;42279;51.388;7.000;2023-05-07T04:59:43;8.20;;;7.70;;
2313;SDS011;42279;51.388;7.000;2023-05-07T05:02:09;7.10;;;6.73;;
2313;SDS011;42279;51.388;7.000;2023-05-07T05:04:35;9.53;;;8.80;;
2313;SDS011;42279;51.388;7.000;2023-05-07T05:07:02;6.93;;;6.53;;
2313;SDS011;42279;51.388;7.000;2023-05-07T05:09:29;6.63;;;6.33;;
2313;SDS011;42279;51.388;7.000;2023-05-07T05:11:55;6.60;;;6.10;;
2313;SDS011;42279;51.388;7.000;2023-05-07T05:14:21;5.40;;;5.30;;
2313;SDS011;42279;51.388;7.000;2023-05-07T05:16:47;9.53;;;6.77;;
2313;SDS011;42279;51.388;7.000;2023-05-07T05:19:13;8.10;;;7.50;;
2313;SDS011;42279;51.388;7.000;2023-05-07T05:21:39;7.53;;;7.10;;
2313;SDS011;42279;51.388;7.000;2023-05-07T05:24:05;7.10;;;6.80;;
2313;SDS011;42279;51.388;7.000;2023-05-07T05:26:31;6.30;;;5.93;;
2313;SDS011;42279;51.388;7.000;2023-05-07T05:28:57;6.30;;;6.00;;
2313;SDS011;42279;51.388;7.000;2023-05-07T05:31:23;6.70;;;6.20;;
2313;SDS011;42279;51.388;7.000;2023-05-07T05:33:49;6.47;;;6.07;;
2313;SDS011;42279;51.388;7.000;2023-05-07T05:36:15;6.50;;;6.03;;
2313;SDS011;42279;51.388;7.000;2023-05-07T05:38:41;6.27;;;6.00;;
2313;SDS011;42279;51.388;7.000;2023-05-07T05:41:07;6.47;;;6.20;;
2313;SDS011;42279;51.388;7.000;2023-05-07T05:43:33;7.40;;;6.90;;
2313;SDS011;42279;51.388;7.000;2023-05-07T05:45:59;6.40;;;6.10;;
2313;SDS011;42279;51.388;7.000;2023-05-07T05:48:25;6.60;;;6.33;;
2313;SDS011;42279;51.388;7.000;2023-05-07T05:50:51;8.07;;;6.97;;
2313;SDS011;42279;51.388;7.000;2023-05-07T05:53:17;6.70;;;6.30;;
2313;SDS011;42279;51.388;7.000;2023-05-07T05:55:43;6.43;;;6.13;;
2313;SDS011;42279;51.388;7.000;2023-05-07T05:58:09;7.23;;;6.67;;
2313;SDS011;42279;51.388;7.000;2023-05-07T06:00:35;7.23;;;6.87;;
2313;SDS011;42279;51.388;7.000;2023-05-07T06:03:01;7.87;;;7.30;;
2313;SDS011;42279;51.388;7.000;2023-05-07T06:05:27;8.67;;;8.13;;
2313;SDS011;42279;51.388;7.000;2023-05-07T06:07:53;8.43;;;7.93;;
2313;SDS011;42279;51.388;7.000;2023-05-07T06:10:19;7.47;;;7.10;;
2313;SDS011;42279;51.388;7.000;2023-05-07T06:12:45;8.53;;;8.03;;
2313;SDS011;42279;51.388;7.000;2023-05-07T06:15:11;8.30;;;7.80;;
2313;SDS011;42279;51.388;7.000;2023-05-07T06:17:37;8.73;;;8.17;;
2313;SDS011;42279;51.388;7.000;2023-05-07T06:20:03;12.20;;;11.40;;
2313;SDS011;42279;51.388;7.000;2023-05-07T06:22:29;11.30;;;9.00;;
2313;SDS011;42279;51.388;7.000;2023-05-07T06:24:55;9.00;;;8.37;;
2313;SDS011;42279;51.388;7.000;2023-05-07T06:27:21;8.80;;;8.20;;
2313;SDS011;42279;51.388;7.000;2023-05-07T06:29:48;8.90;;;8.13;;
2313;SDS011;42279;51.388;7.000;2023-05-07T06:32:14;8.87;;;8.27;;
2313;SDS011;42279;51.388;7.000;2023-05-07T06:34:41;8.13;;;7.67;;
2313;SDS011;42279;51.388;7.000;2023-05-07T06:37:07;7.83;;;7.20;;
2313;SDS011;42279;51.388;7.000;2023-05-07T06:39:33;8.50;;;8.03;;
2313;SDS011;42279;51.388;7.000;2023-05-07T06:42:00;8.90;;;8.27;;
2313;SDS011;42279;51.388;7.000;2023-05-07T06:44:29;8.83;;;8.30;;
2313;SDS011;42279;51.388;7.000;2023-05-07T06:46:55;8.60;;;8.13;;
2313;SDS011;42279;51.388;7.000;2023-05-07T06:49:21;7.63;;;7.23;;
2313;SDS011;42279;51.388;7.000;2023-05-07T06:51:47;8.60;;;7.80;;
2313;SDS011;42279;51.388;7.000;2023-05-07T06:54:13;9.33;;;8.53;;
2313;SDS011;42279;51.388;7.000;2023-05-07T06:56:39;8.33;;;7.17;;
2313;SDS011;42279;51.388;7.000;2023-05-07T06:59:05;5.93;;;5.63;;
2313;SDS011;42279;51.388;7.000;2023-05-07T07:01:32;7.10;;;6.60;;
2313;SDS011;42279;51.388;7.000;2023-05-07T07:03:58;7.27;;;6.60;;
2313;SDS011;42279;51.388;7.000;2023-05-07T07:06:24;6.37;;;6.07;;
2313;SDS011;42279;51.388;7.000;2023-05-07T07:08:50;6.50;;;6.10;;
2313;SDS011;42279;51.388;7.000;2023-05-07T07:11:16;6.50;;;6.30;;
2313;SDS011;42279;51.388;7.000;2023-05-07T07:13:42;6.73;;;6.40;;
2313;SDS011;42279;51.388;7.000;2023-05-07T07:16:08;6.70;;;6.30;;
2313;SDS011;42279;51.388;7.000;2023-05-07T07:18:34;6.53;;;6.23;;
2313;SDS011;42279;51.388;7.000;2023-05-07T07:21:00;6.60;;;6.00;;
2313;SDS011;42279;51.388;7.000;2023-05-07T07:23:26;5.43;;;5.23;;
2313;SDS011;42279;51.388;7.000;2023-05-07T07:25:52;5.73;;;5.53;;
2313;SDS011;42279;51.388;7.000;2023-05-07T07:28:20;5.33;;;5.23;;
2313;SDS011;42279;51.388;7.000;2023-05-07T07:30:46;7.77;;;7.07;;
2313;SDS011;42279;51.388;7.000;2023-05-07T07:33:12;6.13;;;5.77;;
2313;SDS011;42279;51.388;7.000;2023-05-07T07:35:39;5.17;;;5.07;;
2313;SDS011;42279;51.388;7.000;2023-05-07T07:38:05;5.33;;;5.03;;
2313;SDS011;42279;51.388;7.000;2023-05-07T07:40:31;5.40;;;5.20;;
2313;SDS011;42279;51.388;7.000;2023-05-07T07:42:57;5.93;;;5.53;;
2313;SDS011;42279;51.388;7.000;2023-05-07T07:45:23;5.50;;;5.20;;
2313;SDS011;42279;51.388;7.000;2023-05-07T07:47:49;5.00;;;4.77;;
2313;SDS011;42279;51.388;7.000;2023-05-07T07:50:15;5.60;;;5.17;;
2313;SDS011;42279;51.388;7.000;2023-05-07T07:52:41;5.03;;;4.63;;
2313;SDS011;42279;51.388;7.000;2023-05-07T07:55:07;4.50;;;4.30;;
2313;SDS011;42279;51.388;7.000;2023-05-07T07:57:33;4.83;;;4.50;;
2313;SDS011;42279;51.388;7.000;2023-05-07T07:59:59;4.07;;;3.97;;
2313;SDS011;42279;51.388;7.000;2023-05-07T08:02:25;4.30;;;4.10;;
2313;SDS011;42279;51.388;7.000;2023-05-07T08:04:51;4.43;;;4.30;;
2313;SDS011;42279;51.388;7.000;2023-05-07T08:07:17;3.83;;;3.70;;
2313;SDS011;42279;51.388;7.000;2023-05-07T08:09:45;3.80;;;3.60;;
2313;SDS011;42279;51.388;7.000;2023-05-07T08:12:12;4.50;;;4.30;;
2313;SDS011;42279;51.388;7.000;2023-05-07T08:14:38;4.47;;;4.20;;
2313;SDS011;42279;51.388;7.000;2023-05-07T08:17:04;4.07;;;3.88;;
2313;SDS011;42279;51.388;7.000;2023-05-07T08:19:30;3.40;;;3.30;;
2313;SDS011;42279;51.388;7.000;2023-05-07T08:21:56;3.80;;;3.63;;
2313;SDS011;42279;51.388;7.000;2023-05-07T08:24:22;4.43;;;4.23;;
2313;SDS011;42279;51.388;7.000;2023-05-07T08:26:48;3.43;;;3.23;;
2313;SDS011;42279;51.388;7.000;2023-05-07T08:29:14;3.40;;;3.20;;
2313;SDS011;42279;51.388;7.000;2023-05-07T08:31:40;3.90;;;3.57;;
2313;SDS011;42279;51.388;7.000;2023-05-07T08:34:06;3.57;;;3.47;;
2313;SDS011;42279;51.388;7.000;2023-05-07T08:36:32;3.20;;;3.20;;
2313;SDS011;42279;51.388;7.000;2023-05-07T08:38:59;3.70;;;3.50;;
2313;SDS011;42279;51.388;7.000;2023-05-07T08:41:25;3.20;;;3.00;;
2313;SDS011;42279;51.388;7.000;2023-05-07T08:43:51;2.70;;;2.70;;
2313;SDS011;42279;51.388;7.000;2023-05-07T08:46:18;2.50;;;2.50;;
2313;SDS011;42279;51.388;7.000;2023-05-07T08:48:45;3.30;;;3.00;;
2313;SDS011;42279;51.388;7.000;2023-05-07T08:51:14;3.07;;;2.60;;
2313;SDS011;42279;51.388;7.000;2023-05-07T08:53:41;2.40;;;2.40;;
2313;SDS011;42279;51.388;7.000;2023-05-07T08:56:10;2.37;;;2.37;;
2313;SDS011;42279;51.388;7.000;2023-05-07T08:58:37;2.80;;;2.70;;
2313;SDS011;42279;51.388;7.000;2023-05-07T09:01:09;1.97;;;1.90;;
2313;SDS011;42279;51.388;7.000;2023-05-07T09:03:37;2.13;;;2.13;;
2313;SDS011;42279;51.388;7.000;2023-05-07T09:06:03;2.40;;;2.30;;
2313;SDS011;42279;51.388;7.000;2023-05-07T09:08:32;3.00;;;2.67;;
2313;SDS011;42279;51.388;7.000;2023-05-07T09:10:58;2.20;;;2.20;;
2313;SDS011;42279;51.388;7.000;2023-05-07T09:13:24;2.10;;;2.10;;
2313;SDS011;42279;51.388;7.000;2023-05-07T09:15:50;3.13;;;2.43;;
2313;SDS011;42279;51.388;7.000;2023-05-07T09:18:16;2.50;;;2.50;;
2313;SDS011;42279;51.388;7.000;2023-05-07T09:20:42;2.50;;;2.40;;
2313;SDS011;42279;51.388;7.000;2023-05-07T09:23:08;2.10;;;2.10;;
2313;SDS011;42279;51.388;7.000;2023-05-07T09:25:35;2.03;;;1.90;;
2313;SDS011;42279;51.388;7.000;2023-05-07T09:28:03;2.63;;;2.53;;
2313;SDS011;42279;51.388;7.000;2023-05-07T09:30:32;2.30;;;2.20;;
2313;SDS011;42279;51.388;7.000;2023-05-07T09:32:59;2.40;;;2.30;;
2313;SDS011;42279;51.388;7.000;2023-05-07T09:35:25;2.00;;;1.90;;
2313;SDS011;42279;51.388;7.000;2023-05-07T09:37:52;2.40;;;1.90;;
2313;SDS011;42279;51.388;7.000;2023-05-07T09:40:20;1.87;;;1.87;;
2313;SDS011;42279;51.388;7.000;2023-05-07T09:42:47;2.07;;;2.00;;
2313;SDS011;42279;51.388;7.000;2023-05-07T09:45:14;2.30;;;2.30;;
2313;SDS011;42279;51.388;7.000;2023-05-07T09:47:40;2.17;;;2.07;;
2313;SDS011;42279;51.388;7.000;2023-05-07T09:50:12;1.30;;;1.30;;
2313;SDS011;42279;51.388;7.000;2023-05-07T09:52:38;2.07;;;2.07;;
2313;SDS011;42279;51.388;7.000;2023-05-07T09:55:05;2.47;;;2.47;;
2313;SDS011;42279;51.388;7.000;2023-05-07T09:57:31;2.03;;;2.03;;
2313;SDS011;42279;51.388;7.000;2023-05-07T09:59:58;2.00;;;2.00;;
2313;SDS011;42279;51.388;7.000;2023-05-07T10:02:25;1.90;;;1.80;;
2313;SDS011;42279;51.388;7.000;2023-05-07T10:04:53;2.87;;;2.70;;
2313;SDS011;42279;51.388;7.000;2023-05-07T10:07:20;3.97;;;2.47;;
2313;SDS011;42279;51.388;7.000;2023-05-07T10:09:46;2.07;;;1.97;;
2313;SDS011;42279;51.388;7.000;2023-05-07T10:12:12;1.93;;;1.83;;
2313;SDS011;42279;51.388;7.000;2023-05-07T10:14:38;2.00;;;1.93;;
2313;SDS011;42279;51.388;7.000;2023-05-07T10:17:05;3.70;;;3.50;;
2313;SDS011;42279;51.388;7.000;2023-05-07T10:19:31;1.77;;;1.67;;
2313;SDS011;42279;51.388;7.000;2023-05-07T10:22:02;2.40;;;2.30;;
2313;SDS011;42279;51.388;7.000;2023-05-07T10:24:29;1.77;;;1.77;;
2313;SDS011;42279;51.388;7.000;2023-05-07T10:26:59;1.80;;;1.70;;
2313;SDS011;42279;51.388;7.000;2023-05-07T10:34:20;1.80;;;1.80;;
2313;SDS011;42279;51.388;7.000;2023-05-07T10:36:47;2.10;;;2.00;;
2313;SDS011;42279;51.388;7.000;2023-05-07T10:39:14;2.23;;;2.20;;
2313;SDS011;42279;51.388;7.000;2023-05-07T10:41:40;5.13;;;3.27;;
2313;SDS011;42279;51.388;7.000;2023-05-07T10:44:06;3.23;;;3.13;;
2313;SDS011;42279;51.388;7.000;2023-05-07T10:46:32;2.27;;;2.27;;
2313;SDS011;42279;51.388;7.000;2023-05-07T10:51:31;2.20;;;2.07;;
2313;SDS011;42279;51.388;7.000;2023-05-07T10:56:36;2.63;;;2.63;;
2313;SDS011;42279;51.388;7.000;2023-05-07T11:01:49;2.40;;;2.40;;
2313;SDS011;42279;51.388;7.000;2023-05-07T11:04:16;2.80;;;2.70;;
2313;SDS011;42279;51.388;7.000;2023-05-07T11:15:08;2.73;;;2.53;;
2313;SDS011;42279;51.388;7.000;2023-05-07T11:17:35;2.83;;;2.73;;
2313;SDS011;42279;51.388;7.000;2023-05-07T11:20:17;2.67;;;2.63;;
2313;SDS011;42279;51.388;7.000;2023-05-07T11:22:43;3.60;;;3.00;;
2313;SDS011;42279;51.388;7.000;2023-05-07T11:25:09;2.70;;;2.60;;
2313;SDS011;42279;51.388;7.000;2023-05-07T11:27:35;2.77;;;2.57;;
2313;SDS011;42279;51.388;7.000;2023-05-07T11:30:02;2.50;;;2.40;;
2313;SDS011;42279;51.388;7.000;2023-05-07T11:32:29;2.80;;;2.60;;
2313;SDS011;42279;51.388;7.000;2023-05-07T11:34:55;3.30;;;3.10;;
2313;SDS011;42279;51.388;7.000;2023-05-07T11:37:22;2.80;;;2.70;;
2313;SDS011;42279;51.388;7.000;2023-05-07T11:39:48;2.87;;;2.77;;
2313;SDS011;42279;51.388;7.000;2023-05-07T11:42:25;2.60;;;2.53;;
2313;SDS011;42279;51.388;7.000;2023-05-07T11:44:51;3.33;;;3.23;;
2313;SDS011;42279;51.388;7.000;2023-05-07T11:47:18;2.70;;;2.70;;
2313;SDS011;42279;51.388;7.000;2023-05-07T11:49:47;2.90;;;2.90;;
2313;SDS011;42279;51.388;7.000;2023-05-07T11:52:14;2.50;;;2.40;;
2313;SDS011;42279;51.388;7.000;2023-05-07T11:54:40;2.63;;;2.60;;
2313;SDS011;42279;51.388;7.000;2023-05-07T11:57:06;3.07;;;2.97;;
2313;SDS011;42279;51.388;7.000;2023-05-07T11:59:39;2.73;;;2.73;;
2313;SDS011;42279;51.388;7.000;2023-05-07T12:02:06;3.17;;;3.07;;
2313;SDS011;42279;51.388;7.000;2023-05-07T12:04:32;3.10;;;3.10;;
2313;SDS011;42279;51.388;7.000;2023-05-07T12:06:58;6.37;;;3.33;;
2313;SDS011;42279;51.388;7.000;2023-05-07T12:09:25;3.30;;;3.30;;
2313;SDS011;42279;51.388;7.000;2023-05-07T12:11:51;3.53;;;3.33;;
2313;SDS011;42279;51.388;7.000;2023-05-07T12:14:18;3.90;;;3.07;;
2313;SDS011;42279;51.388;7.000;2023-05-07T12:16:44;7.17;;;3.30;;
2313;SDS011;42279;51.388;7.000;2023-05-07T12:19:11;4.43;;;3.00;;
2313;SDS011;42279;51.388;7.000;2023-05-07T12:21:37;2.87;;;2.70;;
2313;SDS011;42279;51.388;7.000;2023-05-07T12:24:04;4.07;;;3.93;;
2313;SDS011;42279;51.388;7.000;2023-05-07T12:26:30;3.77;;;3.57;;
2313;SDS011;42279;51.388;7.000;2023-05-07T12:28:57;3.47;;;3.37;;
2313;SDS011;42279;51.388;7.000;2023-05-07T12:31:28;3.60;;;3.50;;
2313;SDS011;42279;51.388;7.000;2023-05-07T12:33:54;3.73;;;3.73;;
2313;SDS011;42279;51.388;7.000;2023-05-07T12:36:20;4.00;;;3.90;;
2313;SDS011;42279;51.388;7.000;2023-05-07T12:38:48;4.43;;;4.20;;
2313;SDS011;42279;51.388;7.000;2023-05-07T12:41:15;3.80;;;3.60;;
2313;SDS011;42279;51.388;7.000;2023-05-07T12:43:44;4.77;;;4.47;;
2313;SDS011;42279;51.388;7.000;2023-05-07T12:46:11;4.53;;;4.33;;
2313;SDS011;42279;51.388;7.000;2023-05-07T12:48:43;4.27;;;4.10;;
2313;SDS011;42279;51.388;7.000;2023-05-07T12:51:12;4.63;;;4.53;;
2313;SDS011;42279;51.388;7.000;2023-05-07T12:53:41;4.80;;;4.67;;
2313;SDS011;42279;51.388;7.000;2023-05-07T12:56:08;5.63;;;5.33;;
2313;SDS011;42279;51.388;7.000;2023-05-07T12:58:34;5.30;;;5.20;;
2313;SDS011;42279;51.388;7.000;2023-05-07T13:01:07;5.00;;;4.90;;
2313;SDS011;42279;51.388;7.000;2023-05-07T13:03:35;5.70;;;5.40;;
2313;SDS011;42279;51.388;7.000;2023-05-07T13:06:02;5.23;;;5.03;;
2313;SDS011;42279;51.388;7.000;2023-05-07T13:08:30;6.13;;;5.70;;
2313;SDS011;42279;51.388;7.000;2023-05-07T13:10:57;6.90;;;6.40;;
2313;SDS011;42279;51.388;7.000;2023-05-07T13:13:23;7.23;;;6.53;;
2313;SDS011;42279;51.388;7.000;2023-05-07T13:15:50;5.60;;;5.20;;
2313;SDS011;42279;51.388;7.000;2023-05-07T13:18:16;5.70;;;5.50;;
2313;SDS011;42279;51.388;7.000;2023-05-07T13:20:42;5.13;;;4.83;;
2313;SDS011;42279;51.388;7.000;2023-05-07T13:23:08;5.20;;;5.00;;
2313;SDS011;42279;51.388;7.000;2023-05-07T13:25:34;6.53;;;5.90;;
2313;SDS011;42279;51.388;7.000;2023-05-07T13:28:00;6.23;;;5.63;;
2313;SDS011;42279;51.388;7.000;2023-05-07T13:30:26;5.70;;;5.50;;
2313;SDS011;42279;51.388;7.000;2023-05-07T13:32:53;6.67;;;6.10;;
2313;SDS011;42279;51.388;7.000;2023-05-07T13:35:19;5.80;;;5.50;;
2313;SDS011;42279;51.388;7.000;2023-05-07T13:37:46;6.17;;;5.90;;
2313;SDS011;42279;51.388;7.000;2023-05-07T13:40:14;6.57;;;6.07;;
2313;SDS011;42279;51.388;7.000;2023-05-07T13:42:40;6.90;;;6.30;;
2313;SDS011;42279;51.388;7.000;2023-05-07T13:45:06;6.40;;;6.20;;
2313;SDS011;42279;51.388;7.000;2023-05-07T13:47:33;7.90;;;7.00;;
2313;SDS011;42279;51.388;7.000;2023-05-07T13:50:00;7.53;;;6.93;;
2313;SDS011;42279;51.388;7.000;2023-05-07T13:52:26;8.17;;;7.57;;
2313;SDS011;42279;51.388;7.000;2023-05-07T13:54:52;8.57;;;7.87;;
2313;SDS011;42279;51.388;7.000;2023-05-07T13:57:18;7.80;;;7.40;;
2313;SDS011;42279;51.388;7.000;2023-05-07T13:59:44;8.67;;;7.90;;
2313;SDS011;42279;51.388;7.000;2023-05-07T14:02:10;7.87;;;7.47;;
2313;SDS011;42279;51.388;7.000;2023-05-07T14:04:37;7.83;;;7.50;;
2313;SDS011;42279;51.388;7.000;2023-05-07T14:07:03;7.97;;;7.37;;
2313;SDS011;42279;51.388;7.000;2023-05-07T14:09:30;9.33;;;8.27;;
2313;SDS011;42279;51.388;7.000;2023-05-07T14:11:56;10.57;;;9.60;;
2313;SDS011;42279;51.388;7.000;2023-05-07T14:14:22;9.70;;;8.90;;
2313;SDS011;42279;51.388;7.000;2023-05-07T14:16:48;10.70;;;10.00;;
2313;SDS011;42279;51.388;7.000;2023-05-07T14:19:14;10.20;;;9.50;;
2313;SDS011;42279;51.388;7.000;2023-05-07T14:21:40;10.85;;;9.85;;
2313;SDS011;42279;51.388;7.000;2023-05-07T14:24:07;10.40;;;9.60;;
2313;SDS011;42279;51.388;7.000;2023-05-07T14:26:33;10.47;;;9.40;;
2313;SDS011;42279;51.388;7.000;2023-05-07T14:28:59;10.23;;;9.40;;
2313;SDS011;42279;51.388;7.000;2023-05-07T14:31:26;11.35;;;10.35;;
2313;SDS011;42279;51.388;7.000;2023-05-07T14:33:52;10.20;;;9.40;;
2313;SDS011;42279;51.388;7.000;2023-05-07T14:36:18;11.97;;;10.97;;
2313;SDS011;42279;51.388;7.000;2023-05-07T14:41:15;12.88;;;11.88;;
2313;SDS011;42279;51.388;7.000;2023-05-07T14:43:41;14.90;;;13.50;;
2313;SDS011;42279;51.388;7.000;2023-05-07T14:46:07;18.52;;;16.63;;
2313;SDS011;42279;51.388;7.000;2023-05-07T14:48:33;15.13;;;13.83;;
2313;SDS011;42279;51.388;7.000;2023-05-07T14:50:59;14.67;;;13.03;;
2313;SDS011;42279;51.388;7.000;2023-05-07T14:53:25;17.60;;;15.80;;
2313;SDS011;42279;51.388;7.000;2023-05-07T14:55:51;20.13;;;15.03;;
2313;SDS011;42279;51.388;7.000;2023-05-07T14:58:17;14.90;;;13.10;;
2313;SDS011;42279;51.388;7.000;2023-05-07T15:00:44;16.23;;;13.80;;
2313;SDS011;42279;51.388;7.000;2023-05-07T15:03:10;15.20;;;13.70;;
2313;SDS011;42279;51.388;7.000;2023-05-07T15:05:37;17.88;;;15.98;;
2313;SDS011;42279;51.388;7.000;2023-05-07T15:08:03;23.13;;;18.50;;
2313;SDS011;42279;51.388;7.000;2023-05-07T15:10:29;18.58;;;15.98;;
2313;SDS011;42279;51.388;7.000;2023-05-07T15:12:55;14.75;;;13.35;;
2313;SDS011;42279;51.388;7.000;2023-05-07T15:15:21;13.13;;;11.73;;
2313;SDS011;42279;51.388;7.000;2023-05-07T15:17:47;11.97;;;10.80;;
2313;SDS011;42279;51.388;7.000;2023-05-07T15:20:13;12.07;;;11.00;;